createdAt,value
2022-10-14T00:01:33.203Z,15.60
2022-10-14T00:04:02.582Z,15.60
2022-10-14T00:06:33.519Z,15.60
2022-10-14T00:09:06.062Z,15.60
2022-10-14T00:11:36.865Z,15.60
2022-10-14T00:14:07.795Z,15.60
2022-10-14T00:16:41.112Z,15.70
2022-10-14T00:19:12.882Z,15.70
2022-10-14T00:21:43.958Z,15.70
2022-10-14T00:24:16.199Z,15.70
2022-10-14T00:26:45.352Z,15.70
2022-10-14T00:29:17.961Z,15.80
2022-10-14T00:31:47.025Z,15.80
2022-10-14T00:34:17.635Z,15.80
2022-10-14T00:36:46.385Z,15.80
2022-10-14T00:39:21.900Z,15.80
2022-10-14T00:41:50.896Z,15.80
2022-10-14T00:45:10.654Z,15.80
2022-10-14T00:47:40.255Z,15.80
2022-10-14T00:50:11.370Z,15.80
2022-10-14T00:52:40.422Z,15.80
2022-10-14T00:55:16.101Z,15.80
2022-10-14T00:57:45.557Z,15.80
2022-10-14T01:00:17.226Z,15.80
2022-10-14T01:02:47.094Z,15.90
2022-10-14T01:05:17.795Z,15.90
2022-10-14T01:07:55.903Z,15.90
2022-10-14T01:10:34.523Z,15.90
2022-10-14T01:13:24.142Z,15.90
2022-10-14T01:16:03.209Z,15.90
2022-10-14T01:18:47.972Z,15.90
2022-10-14T01:21:21.686Z,15.90
2022-10-14T01:24:28.170Z,15.90
2022-10-14T01:27:19.294Z,15.90
2022-10-14T01:30:10.680Z,15.90
2022-10-14T01:33:02.632Z,15.90
2022-10-14T01:35:56.127Z,15.90
2022-10-14T01:38:30.831Z,15.90
2022-10-14T01:41:07.580Z,15.80
2022-10-14T01:43:37.621Z,15.90
2022-10-14T01:46:28.993Z,15.80
2022-10-14T01:49:03.403Z,15.80
2022-10-14T01:51:53.719Z,15.80
2022-10-14T01:54:27.482Z,15.80
2022-10-14T01:57:00.572Z,15.80
2022-10-14T01:59:30.930Z,15.80
2022-10-14T02:02:01.371Z,15.80
2022-10-14T02:04:30.574Z,15.80
2022-10-14T02:07:15.084Z,15.80
2022-10-14T02:09:50.484Z,15.70
2022-10-14T02:12:29.606Z,15.70
2022-10-14T02:15:07.115Z,15.70
2022-10-14T02:17:43.742Z,15.70
2022-10-14T02:20:25.134Z,15.70
2022-10-14T02:22:59.814Z,15.70
2022-10-14T02:25:33.467Z,15.60
2022-10-14T02:28:04.308Z,15.60
2022-10-14T02:30:37.366Z,15.60
2022-10-14T02:33:08.392Z,15.60
2022-10-14T02:35:40.295Z,15.60
2022-10-14T02:38:09.777Z,15.60
2022-10-14T02:40:43.091Z,15.60
2022-10-14T02:43:12.455Z,15.60
2022-10-14T02:45:43.089Z,15.50
2022-10-14T02:48:14.503Z,15.50
2022-10-14T02:50:43.624Z,15.50
2022-10-14T02:53:17.452Z,15.50
2022-10-14T02:55:47.766Z,15.50
2022-10-14T02:58:16.666Z,15.50
2022-10-14T03:00:45.607Z,15.40
2022-10-14T03:03:16.803Z,15.40
2022-10-14T03:05:46.374Z,15.40
2022-10-14T03:08:16.955Z,15.40
2022-10-14T03:10:48.513Z,15.40
2022-10-14T03:13:18.613Z,15.40
2022-10-14T03:15:50.691Z,15.40
2022-10-14T03:18:23.143Z,15.40
2022-10-14T03:20:57.071Z,15.40
2022-10-14T03:23:44.284Z,15.40
2022-10-14T03:26:14.100Z,15.40
2022-10-14T03:29:01.706Z,15.40
2022-10-14T03:31:47.647Z,15.40
2022-10-14T03:34:34.523Z,15.40
2022-10-14T03:37:07.976Z,15.40
2022-10-14T03:39:45.278Z,15.40
2022-10-14T03:42:15.242Z,15.40
2022-10-14T03:44:48.215Z,15.40
2022-10-14T03:47:24.249Z,15.40
2022-10-14T03:49:54.667Z,15.40
2022-10-14T03:52:33.421Z,15.30
2022-10-14T03:55:22.479Z,15.40
2022-10-14T03:57:52.778Z,15.40
2022-10-14T04:00:22.303Z,15.40
2022-10-14T04:03:00.889Z,15.40
2022-10-14T04:05:37.435Z,15.40
2022-10-14T04:08:12.160Z,15.40
2022-10-14T04:10:45.102Z,15.30
2022-10-14T04:13:16.617Z,15.30
2022-10-14T04:15:45.437Z,15.30
2022-10-14T04:18:22.060Z,15.30
2022-10-14T04:20:55.228Z,15.30
2022-10-14T04:23:26.753Z,15.30
2022-10-14T04:26:00.031Z,15.30
2022-10-14T04:28:29.190Z,15.30
2022-10-14T04:31:07.369Z,15.30
2022-10-14T04:33:48.378Z,15.30
2022-10-14T04:36:24.696Z,15.30
2022-10-14T04:38:54.301Z,15.30
2022-10-14T04:41:23.373Z,15.30
2022-10-14T04:43:52.977Z,15.30
2022-10-14T04:46:31.950Z,15.40
2022-10-14T04:49:06.502Z,15.40
2022-10-14T04:51:42.405Z,15.40
2022-10-14T04:54:39.960Z,15.50
2022-10-14T04:57:10.177Z,15.50
2022-10-14T04:59:40.203Z,15.60
2022-10-14T05:02:27.369Z,15.60
2022-10-14T05:05:01.149Z,15.70
2022-10-14T05:07:36.485Z,15.70
2022-10-14T05:10:20.872Z,15.70
2022-10-14T05:12:50.546Z,15.80
2022-10-14T05:15:20.416Z,15.80
2022-10-14T05:18:00.819Z,15.90
2022-10-14T05:20:48.217Z,15.90
2022-10-14T05:23:18.778Z,16.00
2022-10-14T05:25:48.266Z,16.00
2022-10-14T05:28:18.012Z,16.10
2022-10-14T05:30:47.483Z,16.20
2022-10-14T05:33:16.221Z,16.20
2022-10-14T05:36:00.799Z,16.30
2022-10-14T05:38:35.106Z,16.30
2022-10-14T05:41:05.115Z,16.40
2022-10-14T05:43:34.486Z,16.40
2022-10-14T05:46:06.971Z,16.50
2022-10-14T05:48:40.092Z,16.50
2022-10-14T05:51:09.468Z,16.50
2022-10-14T05:53:41.120Z,16.60
2022-10-14T05:56:16.033Z,16.60
2022-10-14T05:58:44.767Z,16.70
2022-10-14T06:01:13.693Z,16.70
2022-10-14T06:03:44.505Z,16.70
2022-10-14T06:06:14.769Z,16.80
2022-10-14T06:08:46.331Z,16.80
2022-10-14T06:11:15.165Z,16.80
2022-10-14T06:13:44.051Z,16.90
2022-10-14T06:16:13.383Z,17.00
2022-10-14T06:18:42.248Z,17.00
2022-10-14T06:21:12.832Z,17.00
2022-10-14T06:23:41.619Z,17.10
2022-10-14T06:26:12.008Z,17.10
2022-10-14T06:28:40.888Z,17.10
2022-10-14T06:31:09.958Z,17.10
2022-10-14T06:33:39.032Z,17.10
2022-10-14T06:36:08.580Z,17.20
2022-10-14T06:38:37.418Z,17.20
2022-10-14T06:41:06.314Z,17.30
2022-10-14T06:43:36.601Z,17.30
2022-10-14T06:46:08.864Z,17.40
2022-10-14T06:48:37.987Z,17.60
2022-10-14T06:51:06.835Z,17.60
2022-10-14T06:53:35.562Z,17.80
2022-10-14T06:56:06.397Z,17.70
2022-10-14T06:58:36.707Z,18.00
2022-10-14T07:01:06.886Z,18.20
2022-10-14T07:03:38.983Z,18.30
2022-10-14T07:06:09.593Z,18.40
2022-10-14T07:08:38.476Z,18.40
2022-10-14T07:11:07.512Z,18.50
2022-10-14T07:13:38.107Z,18.60
2022-10-14T07:16:07.513Z,18.70
2022-10-14T07:18:36.220Z,18.70
2022-10-14T07:21:05.518Z,18.80
2022-10-14T07:23:34.428Z,18.90
2022-10-14T07:26:03.383Z,18.90
2022-10-14T07:28:34.332Z,19.00
2022-10-14T07:31:06.565Z,19.10
2022-10-14T07:36:08.164Z,19.30
2022-10-14T07:38:37.645Z,19.40
2022-10-14T07:41:10.704Z,19.50
2022-10-14T07:43:39.611Z,19.50
2022-10-14T07:46:10.029Z,19.60
2022-10-14T07:48:55.796Z,19.70
2022-10-14T07:51:25.832Z,19.80
2022-10-14T07:53:55.108Z,19.90
2022-10-14T07:56:24.440Z,19.90
2022-10-14T07:58:54.098Z,20.00
2022-10-14T08:01:24.820Z,20.10
2022-10-14T08:03:53.863Z,20.20
2022-10-14T08:06:23.446Z,20.30
2022-10-14T08:08:52.470Z,20.40
2022-10-14T08:11:24.163Z,20.70
2022-10-14T08:13:53.644Z,21.00
2022-10-14T08:16:26.280Z,21.10
2022-10-14T08:18:58.265Z,21.10
2022-10-14T08:21:27.411Z,21.20
2022-10-14T08:23:56.246Z,21.40
2022-10-14T08:26:29.847Z,21.80
2022-10-14T08:29:00.189Z,22.30
2022-10-14T08:31:31.261Z,22.90
2022-10-14T08:34:00.034Z,23.60
2022-10-14T08:36:28.904Z,24.00
2022-10-14T08:38:58.126Z,24.30
2022-10-14T08:41:37.238Z,24.60
2022-10-14T08:44:16.373Z,24.70
2022-10-14T08:46:52.121Z,24.50
2022-10-14T08:49:27.612Z,24.20
2022-10-14T08:52:02.508Z,24.00
2022-10-14T08:54:40.901Z,24.20
2022-10-14T08:57:35.037Z,24.90
2022-10-14T09:00:05.397Z,25.80
2022-10-14T09:02:44.050Z,26.40
2022-10-14T09:05:17.188Z,26.90
2022-10-14T09:07:47.832Z,27.20
2022-10-14T09:10:22.340Z,27.40
2022-10-14T09:12:53.502Z,27.30
2022-10-14T09:15:28.250Z,27.10
2022-10-14T09:18:07.526Z,26.90
2022-10-14T09:20:36.482Z,26.70
2022-10-14T09:23:17.308Z,26.60
2022-10-14T09:25:55.406Z,26.60
2022-10-14T09:28:32.760Z,26.80
2022-10-14T09:31:01.605Z,26.90
2022-10-14T09:33:37.116Z,26.90
2022-10-14T09:36:13.324Z,26.90
2022-10-14T09:38:42.284Z,27.00
2022-10-14T09:41:15.245Z,27.20
2022-10-14T09:44:21.750Z,27.30
2022-10-14T09:46:54.134Z,27.90
2022-10-14T09:49:35.113Z,28.50
2022-10-14T09:52:04.298Z,28.90
2022-10-14T09:54:45.621Z,29.60
2022-10-14T09:57:20.065Z,30.10
2022-10-14T09:59:55.293Z,30.60
2022-10-14T10:02:27.072Z,30.70
2022-10-14T10:04:57.507Z,31.00
2022-10-14T10:07:31.377Z,31.10
2022-10-14T10:10:01.860Z,31.40
2022-10-14T10:12:32.959Z,31.40
2022-10-14T10:15:04.872Z,31.50
2022-10-14T10:17:36.234Z,31.60
2022-10-14T10:20:19.829Z,31.40
2022-10-14T10:22:49.201Z,31.40
2022-10-14T10:25:26.512Z,31.30
2022-10-14T10:27:58.694Z,31.10
2022-10-14T10:30:29.302Z,30.90
2022-10-14T10:33:16.560Z,30.80
2022-10-14T10:36:05.536Z,30.80
2022-10-14T10:38:41.789Z,30.90
2022-10-14T10:41:27.671Z,30.90
2022-10-14T10:44:17.140Z,30.80
2022-10-14T10:47:08.639Z,30.70
2022-10-14T10:50:16.694Z,30.50
2022-10-14T10:53:01.533Z,30.10
2022-10-14T10:55:40.499Z,30.00
2022-10-14T10:58:21.866Z,29.80
2022-10-14T11:01:02.023Z,29.60
2022-10-14T11:03:43.057Z,29.60
2022-10-14T11:06:37.678Z,29.60
2022-10-14T11:09:37.526Z,29.60
2022-10-14T11:12:15.890Z,29.60
2022-10-14T11:15:13.597Z,29.70
2022-10-14T11:17:51.490Z,29.80
2022-10-14T11:20:29.889Z,29.80
2022-10-14T11:23:23.681Z,29.70
2022-10-14T11:25:59.536Z,29.40
2022-10-14T11:28:38.475Z,29.20
2022-10-14T11:31:16.267Z,29.20
2022-10-14T11:34:04.591Z,29.10
2022-10-14T11:36:41.338Z,29.00
2022-10-14T11:39:21.663Z,29.00
2022-10-14T11:42:21.750Z,28.80
2022-10-14T11:45:11.892Z,28.40
2022-10-14T11:47:48.480Z,27.90
2022-10-14T11:50:23.431Z,27.50
2022-10-14T11:52:58.452Z,27.20
2022-10-14T11:55:31.758Z,26.90
2022-10-14T11:58:07.045Z,26.60
2022-10-14T12:00:39.329Z,26.40
2022-10-14T12:03:16.546Z,26.30
2022-10-14T12:05:49.921Z,26.10
2022-10-14T12:08:27.659Z,25.90
2022-10-14T12:11:04.605Z,25.70
2022-10-14T12:13:41.784Z,25.50
2022-10-14T12:16:15.218Z,25.30
2022-10-14T12:18:45.935Z,25.20
2022-10-14T12:21:21.095Z,25.10
2022-10-14T12:23:53.115Z,25.00
2022-10-14T12:26:47.351Z,25.00
2022-10-14T12:29:21.975Z,24.90
2022-10-14T12:32:06.758Z,24.80
2022-10-14T12:34:38.533Z,24.70
2022-10-14T12:37:50.647Z,24.60
2022-10-14T12:40:30.296Z,24.50
2022-10-14T12:43:05.634Z,24.30
2022-10-14T12:45:37.223Z,24.30
2022-10-14T12:48:14.234Z,24.20
2022-10-14T12:50:44.037Z,24.20
2022-10-14T12:53:22.800Z,24.30
2022-10-14T12:55:54.242Z,24.30
2022-10-14T12:58:30.493Z,24.30
2022-10-14T13:01:04.703Z,24.40
2022-10-14T13:03:45.394Z,24.40
2022-10-14T13:06:36.656Z,24.40
2022-10-14T13:09:31.044Z,24.30
2022-10-14T13:12:41.400Z,24.30
2022-10-14T13:15:34.461Z,24.30
2022-10-14T13:18:38.550Z,24.20
2022-10-14T13:21:10.234Z,24.10
2022-10-14T13:23:42.664Z,24.00
2022-10-14T13:26:23.617Z,24.00
2022-10-14T13:29:07.678Z,23.90
2022-10-14T13:31:41.619Z,23.80
2022-10-14T13:34:21.829Z,23.80
2022-10-14T13:37:02.229Z,23.70
2022-10-14T13:39:34.247Z,23.60
2022-10-14T13:42:03.926Z,23.60
2022-10-14T13:44:32.790Z,23.60
2022-10-14T13:47:04.029Z,23.50
2022-10-14T13:49:47.862Z,23.40
2022-10-14T13:52:25.030Z,23.30
2022-10-14T13:55:21.238Z,23.30
2022-10-14T13:58:19.285Z,23.20
2022-10-14T14:01:02.485Z,23.20
2022-10-14T14:03:37.082Z,23.10
2022-10-14T14:06:12.318Z,23.10
2022-10-14T14:08:56.769Z,23.00
2022-10-14T14:11:27.966Z,22.90
2022-10-14T14:14:01.361Z,22.90
2022-10-14T14:16:36.906Z,22.80
2022-10-14T14:19:09.521Z,22.70
2022-10-14T14:21:40.458Z,22.70
2022-10-14T14:24:18.758Z,22.60
2022-10-14T14:26:56.104Z,22.60
2022-10-14T14:29:30.112Z,22.50
2022-10-14T14:32:08.653Z,22.40
2022-10-14T14:34:39.928Z,22.40
2022-10-14T14:37:40.269Z,22.30
2022-10-14T14:40:09.422Z,22.30
2022-10-14T14:42:41.185Z,22.20
2022-10-14T14:45:18.148Z,22.20
2022-10-14T14:47:51.701Z,22.20
2022-10-14T14:50:31.234Z,22.10
2022-10-14T14:53:05.203Z,22.10
2022-10-14T14:55:40.515Z,22.00
2022-10-14T14:58:24.686Z,22.00
2022-10-14T15:00:55.243Z,21.90
2022-10-14T15:03:26.549Z,21.90
2022-10-14T15:05:59.405Z,21.90
2022-10-14T15:08:32.522Z,21.80
2022-10-14T15:11:03.020Z,21.80
2022-10-14T15:13:48.835Z,21.70
2022-10-14T15:16:36.131Z,21.70
2022-10-14T15:19:39.983Z,21.60
2022-10-14T15:22:31.744Z,21.60
2022-10-14T15:25:14.100Z,21.50
2022-10-14T15:27:55.105Z,21.40
2022-10-14T15:30:28.447Z,21.40
2022-10-14T15:33:02.996Z,21.30
2022-10-14T15:35:39.608Z,21.20
2022-10-14T15:38:15.950Z,21.20
2022-10-14T15:40:48.449Z,21.10
2022-10-14T15:43:24.050Z,21.10
2022-10-14T15:46:13.172Z,21.00
2022-10-14T15:48:47.566Z,20.90
2022-10-14T15:51:35.107Z,20.90
2022-10-14T15:54:03.955Z,20.80
2022-10-14T15:56:52.820Z,20.70
2022-10-14T15:59:21.971Z,20.70
2022-10-14T16:01:51.101Z,20.60
2022-10-14T16:04:42.004Z,20.60
2022-10-14T16:07:24.039Z,20.50
2022-10-14T16:09:53.709Z,20.50
2022-10-14T16:12:23.823Z,20.40
2022-10-14T16:14:52.516Z,20.40
2022-10-14T16:17:21.708Z,20.30
2022-10-14T16:19:51.027Z,20.30
2022-10-14T16:22:19.824Z,20.20
2022-10-14T16:24:48.806Z,20.20
2022-10-14T16:27:17.890Z,20.10
2022-10-14T16:29:48.063Z,20.10
2022-10-14T16:32:17.623Z,20.00
2022-10-14T16:34:46.536Z,20.00
2022-10-14T16:37:15.168Z,19.90
2022-10-14T16:39:44.030Z,19.90
2022-10-14T16:42:13.738Z,19.80
2022-10-14T16:44:42.708Z,19.80
2022-10-14T16:47:19.881Z,19.80
2022-10-14T16:49:52.117Z,19.70
2022-10-14T16:52:21.557Z,19.70
2022-10-14T16:54:50.608Z,19.60
2022-10-14T16:57:19.684Z,19.60
2022-10-14T16:59:48.371Z,19.60
2022-10-14T17:02:21.756Z,19.60
2022-10-14T17:04:51.642Z,19.50
2022-10-14T17:07:20.486Z,19.50
2022-10-14T17:09:49.342Z,19.50
2022-10-14T17:12:19.507Z,19.50
2022-10-14T17:14:48.504Z,19.40
2022-10-14T17:17:18.845Z,19.40
2022-10-14T17:19:48.875Z,19.40
2022-10-14T17:22:19.880Z,19.40
2022-10-14T17:24:49.399Z,19.40
2022-10-14T17:27:19.671Z,19.40
2022-10-14T17:29:48.643Z,19.30
2022-10-14T17:32:18.916Z,19.30
2022-10-14T17:34:49.602Z,19.30
2022-10-14T17:37:21.346Z,19.30
2022-10-14T17:39:50.162Z,19.30
2022-10-14T17:42:19.061Z,19.30
2022-10-14T17:44:49.395Z,19.20
2022-10-14T17:47:20.129Z,19.20
2022-10-14T17:49:50.610Z,19.20
2022-10-14T17:52:19.543Z,19.20
2022-10-14T17:54:48.355Z,19.20
2022-10-14T17:57:17.126Z,19.10
2022-10-14T17:59:45.889Z,19.10
2022-10-14T18:02:20.331Z,19.10
2022-10-14T18:05:08.535Z,19.10
2022-10-14T18:07:39.036Z,19.10
2022-10-14T18:10:08.275Z,19.10
2022-10-14T18:12:37.088Z,19.10
2022-10-14T18:15:06.745Z,19.10
2022-10-14T18:17:37.545Z,19.10
2022-10-14T18:20:07.357Z,19.10
2022-10-14T18:22:36.431Z,19.00
2022-10-14T18:25:06.891Z,19.00
2022-10-14T18:27:35.723Z,19.00
2022-10-14T18:30:04.647Z,19.00
2022-10-14T18:32:33.470Z,19.00
2022-10-14T18:35:05.375Z,19.00
2022-10-14T18:37:34.658Z,19.00
2022-10-14T18:40:03.398Z,19.00
2022-10-14T18:42:32.128Z,19.00
2022-10-14T18:45:00.998Z,18.90
2022-10-14T18:47:29.694Z,18.90
2022-10-14T18:49:59.884Z,18.90
2022-10-14T18:52:30.300Z,18.90
2022-10-14T18:54:59.198Z,18.90
2022-10-14T18:57:27.951Z,18.90
2022-10-14T18:59:56.884Z,18.90
2022-10-14T19:02:26.022Z,18.90
2022-10-14T19:04:56.178Z,18.90
2022-10-14T19:07:26.166Z,18.90
2022-10-14T19:09:57.920Z,18.90
2022-10-14T19:12:45.130Z,18.90
2022-10-14T19:15:14.050Z,18.90
2022-10-14T19:17:43.066Z,18.90
2022-10-14T19:20:11.982Z,18.90
2022-10-14T19:22:44.993Z,18.90
2022-10-14T19:25:16.683Z,18.90
2022-10-14T19:27:45.742Z,18.90
2022-10-14T19:30:14.733Z,19.00
2022-10-14T19:32:43.642Z,19.00
2022-10-14T19:35:12.546Z,19.00
2022-10-14T19:37:41.294Z,19.00
2022-10-14T19:40:10.945Z,18.90
2022-10-14T19:42:41.239Z,19.00
2022-10-14T19:45:10.566Z,19.00
2022-10-14T19:47:39.315Z,19.00
2022-10-14T19:50:09.215Z,19.00
2022-10-14T19:52:38.194Z,19.00
2022-10-14T19:55:07.979Z,19.00
2022-10-14T19:57:36.829Z,19.00
2022-10-14T20:00:08.415Z,19.00
2022-10-14T20:05:07.970Z,19.00
2022-10-14T20:07:36.795Z,19.00
2022-10-14T20:10:06.151Z,19.00
2022-10-14T20:12:35.103Z,19.00
2022-10-14T20:15:04.054Z,19.00
2022-10-14T20:17:34.799Z,18.90
2022-10-14T20:20:03.644Z,18.90
2022-10-14T20:22:33.628Z,18.90
2022-10-14T20:25:02.627Z,18.90
2022-10-14T20:27:31.596Z,18.90
2022-10-14T20:30:00.694Z,18.90
2022-10-14T20:32:30.137Z,19.00
2022-10-14T20:35:00.464Z,18.90
2022-10-14T20:37:33.020Z,18.90
2022-10-14T20:40:01.933Z,18.90
2022-10-14T20:42:30.658Z,18.90
2022-10-14T20:44:59.568Z,18.80
2022-10-14T20:47:28.472Z,18.80
2022-10-14T20:49:57.366Z,18.80
2022-10-14T20:52:27.666Z,18.70
2022-10-14T20:54:56.571Z,18.70
2022-10-14T20:57:25.485Z,18.70
2022-10-14T20:59:54.465Z,18.60
2022-10-14T21:02:23.432Z,18.60
2022-10-14T21:04:53.474Z,18.50
2022-10-14T21:07:23.347Z,18.50
2022-10-14T21:09:53.941Z,18.50
2022-10-14T21:12:23.213Z,18.50
2022-10-14T21:14:52.186Z,18.50
2022-10-14T21:17:21.053Z,18.40
2022-10-14T21:19:50.271Z,18.40
2022-10-14T21:22:19.114Z,18.40
2022-10-14T21:24:47.989Z,18.40
2022-10-14T21:27:18.199Z,18.40
2022-10-14T21:29:48.907Z,18.40
2022-10-14T21:32:18.033Z,18.40
2022-10-14T21:34:46.820Z,18.40
2022-10-14T21:37:17.953Z,18.40
2022-10-14T21:39:46.789Z,18.40
2022-10-14T21:42:15.708Z,18.40
2022-10-14T21:44:45.874Z,18.30
2022-10-14T21:47:15.290Z,18.30
2022-10-14T21:49:44.227Z,18.30
2022-10-14T21:52:13.154Z,18.30
2022-10-14T21:54:41.816Z,18.20
2022-10-14T21:57:10.854Z,18.20
2022-10-14T21:59:39.602Z,18.20
2022-10-14T22:02:10.138Z,18.10
2022-10-14T22:04:39.049Z,18.10
2022-10-14T22:07:07.835Z,18.10
2022-10-14T22:09:36.588Z,18.10
2022-10-14T22:12:05.749Z,18.00
2022-10-14T22:14:34.492Z,18.00
2022-10-14T22:17:03.285Z,17.90
2022-10-14T22:19:33.607Z,17.90
2022-10-14T22:22:03.440Z,17.90
2022-10-14T22:24:32.367Z,17.80
2022-10-14T22:27:01.189Z,17.60
2022-10-14T22:29:29.983Z,17.80
2022-10-14T22:31:58.894Z,17.80
2022-10-14T22:34:27.638Z,17.70
2022-10-14T22:36:58.095Z,17.70
2022-10-14T22:39:27.370Z,17.70
2022-10-14T22:41:56.226Z,17.60
2022-10-14T22:44:24.941Z,17.60
2022-10-14T22:46:55.245Z,17.60
2022-10-14T22:49:24.219Z,17.60
2022-10-14T22:51:55.948Z,17.60
2022-10-14T22:54:27.592Z,17.60
2022-10-14T22:56:56.462Z,17.60
2022-10-14T22:59:25.457Z,17.50
2022-10-14T23:01:54.291Z,17.50
2022-10-14T23:04:23.133Z,17.50
2022-10-14T23:06:52.865Z,17.50
2022-10-14T23:09:21.715Z,17.50
2022-10-14T23:11:51.948Z,17.50
2022-10-14T23:14:20.678Z,17.50
2022-10-14T23:16:49.421Z,17.40
2022-10-14T23:19:18.092Z,17.40
2022-10-14T23:21:46.922Z,17.40
2022-10-14T23:24:15.927Z,17.40
2022-10-14T23:26:44.827Z,17.30
2022-10-14T23:29:15.132Z,17.30
2022-10-14T23:31:44.106Z,17.30
2022-10-14T23:34:14.383Z,17.30
2022-10-14T23:36:43.674Z,17.30
2022-10-14T23:39:12.852Z,17.30
2022-10-14T23:41:41.707Z,17.30
2022-10-14T23:44:12.349Z,17.50
2022-10-14T23:47:01.089Z,17.30
2022-10-14T23:49:29.867Z,17.30
2022-10-14T23:51:58.640Z,17.30
2022-10-14T23:54:27.627Z,17.30
2022-10-14T23:56:56.589Z,17.30
2022-10-14T23:59:25.522Z,17.20
